sensor_id;sensor_type;location;lat;lon;timestamp;P1;durP1;ratioP1;P2;durP2;ratioP2
41705;SDS011;27385;51.096;17.190;2022-09-01T00:00:32;6.60;;;1.40;;
41705;SDS011;27385;51.096;17.190;2022-09-01T00:03:05;7.00;;;1.80;;
41705;SDS011;27385;51.096;17.190;2022-09-01T00:05:38;6.30;;;1.40;;
41705;SDS011;27385;51.096;17.190;2022-09-01T00:08:10;8.10;;;1.40;;
41705;SDS011;27385;51.096;17.190;2022-09-01T00:10:42;7.50;;;1.60;;
41705;SDS011;27385;51.096;17.190;2022-09-01T00:13:13;8.30;;;1.50;;
41705;SDS011;27385;51.096;17.190;2022-09-01T00:15:45;7.50;;;1.50;;
41705;SDS011;27385;51.096;17.190;2022-09-01T00:18:16;9.00;;;1.50;;
41705;SDS011;27385;51.096;17.190;2022-09-01T00:20:48;8.10;;;1.50;;
41705;SDS011;27385;51.096;17.190;2022-09-01T00:23:19;6.90;;;1.50;;
41705;SDS011;27385;51.096;17.190;2022-09-01T00:25:51;9.50;;;1.80;;
41705;SDS011;27385;51.096;17.190;2022-09-01T00:28:23;8.00;;;1.50;;
41705;SDS011;27385;51.096;17.190;2022-09-01T00:30:54;5.70;;;1.40;;
41705;SDS011;27385;51.096;17.190;2022-09-01T00:33:26;5.70;;;1.30;;
41705;SDS011;27385;51.096;17.190;2022-09-01T00:35:57;6.40;;;1.20;;
41705;SDS011;27385;51.096;17.190;2022-09-01T00:38:29;9.50;;;1.40;;
41705;SDS011;27385;51.096;17.190;2022-09-01T00:41:02;4.70;;;1.00;;
41705;SDS011;27385;51.096;17.190;2022-09-01T00:43:38;10.50;;;1.40;;
41705;SDS011;27385;51.096;17.190;2022-09-01T00:46:12;7.60;;;1.20;;
41705;SDS011;27385;51.096;17.190;2022-09-01T00:48:45;5.00;;;1.10;;
41705;SDS011;27385;51.096;17.190;2022-09-01T00:51:19;7.30;;;1.10;;
41705;SDS011;27385;51.096;17.190;2022-09-01T00:53:52;5.10;;;0.90;;
41705;SDS011;27385;51.096;17.190;2022-09-01T00:56:24;6.70;;;1.00;;
41705;SDS011;27385;51.096;17.190;2022-09-01T00:58:57;5.00;;;1.10;;
41705;SDS011;27385;51.096;17.190;2022-09-01T01:01:30;7.30;;;1.20;;
41705;SDS011;27385;51.096;17.190;2022-09-01T01:04:04;5.30;;;1.60;;
41705;SDS011;27385;51.096;17.190;2022-09-01T01:06:44;6.50;;;1.40;;
41705;SDS011;27385;51.096;17.190;2022-09-01T01:09:25;8.80;;;1.90;;
41705;SDS011;27385;51.096;17.190;2022-09-01T01:11:59;7.60;;;1.20;;
41705;SDS011;27385;51.096;17.190;2022-09-01T01:14:34;8.90;;;1.50;;
41705;SDS011;27385;51.096;17.190;2022-09-01T01:17:06;7.30;;;1.30;;
41705;SDS011;27385;51.096;17.190;2022-09-01T01:19:41;8.00;;;1.20;;
41705;SDS011;27385;51.096;17.190;2022-09-01T01:22:34;5.80;;;1.20;;
41705;SDS011;27385;51.096;17.190;2022-09-01T01:25:29;7.90;;;1.50;;
41705;SDS011;27385;51.096;17.190;2022-09-01T01:28:04;7.20;;;1.20;;
41705;SDS011;27385;51.096;17.190;2022-09-01T01:30:40;6.90;;;1.20;;
41705;SDS011;27385;51.096;17.190;2022-09-01T01:33:18;7.50;;;1.30;;
41705;SDS011;27385;51.096;17.190;2022-09-01T01:35:52;7.30;;;1.30;;
41705;SDS011;27385;51.096;17.190;2022-09-01T01:38:24;4.40;;;1.00;;
41705;SDS011;27385;51.096;17.190;2022-09-01T01:40:57;6.80;;;1.10;;
41705;SDS011;27385;51.096;17.190;2022-09-01T01:43:28;6.20;;;1.30;;
41705;SDS011;27385;51.096;17.190;2022-09-01T01:46:01;10.30;;;1.50;;
41705;SDS011;27385;51.096;17.190;2022-09-01T01:48:36;5.70;;;1.40;;
41705;SDS011;27385;51.096;17.190;2022-09-01T01:51:09;6.60;;;1.40;;
41705;SDS011;27385;51.096;17.190;2022-09-01T01:53:41;6.90;;;1.10;;
41705;SDS011;27385;51.096;17.190;2022-09-01T01:56:14;5.90;;;1.10;;
41705;SDS011;27385;51.096;17.190;2022-09-01T01:58:45;7.30;;;1.20;;
41705;SDS011;27385;51.096;17.190;2022-09-01T02:01:21;10.70;;;1.50;;
41705;SDS011;27385;51.096;17.190;2022-09-01T02:03:55;6.00;;;1.10;;
41705;SDS011;27385;51.096;17.190;2022-09-01T02:06:27;8.10;;;1.30;;
41705;SDS011;27385;51.096;17.190;2022-09-01T02:09:04;9.50;;;1.40;;
41705;SDS011;27385;51.096;17.190;2022-09-01T02:11:36;7.20;;;1.10;;
41705;SDS011;27385;51.096;17.190;2022-09-01T02:14:08;6.00;;;0.90;;
41705;SDS011;27385;51.096;17.190;2022-09-01T02:16:40;6.00;;;0.90;;
41705;SDS011;27385;51.096;17.190;2022-09-01T02:19:11;6.90;;;1.40;;
41705;SDS011;27385;51.096;17.190;2022-09-01T02:21:47;6.50;;;1.10;;
41705;SDS011;27385;51.096;17.190;2022-09-01T02:24:21;5.60;;;1.20;;
41705;SDS011;27385;51.096;17.190;2022-09-01T02:26:53;6.90;;;1.30;;
41705;SDS011;27385;51.096;17.190;2022-09-01T02:29:26;8.90;;;1.60;;
41705;SDS011;27385;51.096;17.190;2022-09-01T02:31:57;7.50;;;1.30;;
41705;SDS011;27385;51.096;17.190;2022-09-01T02:34:29;10.90;;;1.30;;
41705;SDS011;27385;51.096;17.190;2022-09-01T02:37:01;6.90;;;1.30;;
41705;SDS011;27385;51.096;17.190;2022-09-01T02:39:33;8.60;;;1.30;;
41705;SDS011;27385;51.096;17.190;2022-09-01T02:42:05;8.80;;;1.10;;
41705;SDS011;27385;51.096;17.190;2022-09-01T02:44:37;14.80;;;1.80;;
41705;SDS011;27385;51.096;17.190;2022-09-01T02:47:10;16.40;;;1.70;;
41705;SDS011;27385;51.096;17.190;2022-09-01T02:49:42;8.20;;;1.70;;
41705;SDS011;27385;51.096;17.190;2022-09-01T02:52:14;8.20;;;1.30;;
41705;SDS011;27385;51.096;17.190;2022-09-01T02:54:47;5.20;;;1.00;;
41705;SDS011;27385;51.096;17.190;2022-09-01T02:57:18;5.10;;;1.10;;
41705;SDS011;27385;51.096;17.190;2022-09-01T02:59:51;16.70;;;1.10;;
41705;SDS011;27385;51.096;17.190;2022-09-01T03:02:25;5.90;;;1.20;;
41705;SDS011;27385;51.096;17.190;2022-09-01T03:04:58;7.00;;;0.80;;
41705;SDS011;27385;51.096;17.190;2022-09-01T03:07:30;4.40;;;1.10;;
41705;SDS011;27385;51.096;17.190;2022-09-01T03:10:02;8.30;;;1.10;;
41705;SDS011;27385;51.096;17.190;2022-09-01T03:12:36;7.10;;;1.10;;
41705;SDS011;27385;51.096;17.190;2022-09-01T03:15:08;9.30;;;1.60;;
41705;SDS011;27385;51.096;17.190;2022-09-01T03:17:40;6.00;;;0.90;;
41705;SDS011;27385;51.096;17.190;2022-09-01T03:20:12;6.00;;;1.00;;
41705;SDS011;27385;51.096;17.190;2022-09-01T03:22:44;7.30;;;1.80;;
41705;SDS011;27385;51.096;17.190;2022-09-01T03:25:16;9.30;;;1.00;;
41705;SDS011;27385;51.096;17.190;2022-09-01T03:27:48;9.10;;;1.00;;
41705;SDS011;27385;51.096;17.190;2022-09-01T03:30:19;4.70;;;1.00;;
41705;SDS011;27385;51.096;17.190;2022-09-01T03:32:51;7.60;;;1.40;;
41705;SDS011;27385;51.096;17.190;2022-09-01T03:35:22;4.80;;;1.00;;
41705;SDS011;27385;51.096;17.190;2022-09-01T03:37:55;6.10;;;1.00;;
41705;SDS011;27385;51.096;17.190;2022-09-01T03:40:28;6.00;;;1.20;;
41705;SDS011;27385;51.096;17.190;2022-09-01T03:43:01;7.40;;;1.20;;
41705;SDS011;27385;51.096;17.190;2022-09-01T03:45:36;9.60;;;1.40;;
41705;SDS011;27385;51.096;17.190;2022-09-01T03:48:09;5.40;;;1.20;;
41705;SDS011;27385;51.096;17.190;2022-09-01T03:50:47;6.60;;;1.30;;
41705;SDS011;27385;51.096;17.190;2022-09-01T03:53:19;10.20;;;1.40;;
41705;SDS011;27385;51.096;17.190;2022-09-01T03:55:54;7.20;;;1.40;;
41705;SDS011;27385;51.096;17.190;2022-09-01T03:58:25;6.60;;;1.40;;
41705;SDS011;27385;51.096;17.190;2022-09-01T04:00:57;9.50;;;1.20;;
41705;SDS011;27385;51.096;17.190;2022-09-01T04:03:30;5.20;;;1.10;;
41705;SDS011;27385;51.096;17.190;2022-09-01T04:06:02;8.30;;;1.40;;
41705;SDS011;27385;51.096;17.190;2022-09-01T04:08:36;7.90;;;1.10;;
41705;SDS011;27385;51.096;17.190;2022-09-01T04:11:11;7.60;;;1.40;;
41705;SDS011;27385;51.096;17.190;2022-09-01T04:13:45;8.50;;;1.60;;
41705;SDS011;27385;51.096;17.190;2022-09-01T04:16:17;8.70;;;1.60;;
41705;SDS011;27385;51.096;17.190;2022-09-01T04:19:08;8.70;;;1.60;;
41705;SDS011;27385;51.096;17.190;2022-09-01T04:21:53;8.40;;;1.70;;
41705;SDS011;27385;51.096;17.190;2022-09-01T04:24:28;6.50;;;1.70;;
41705;SDS011;27385;51.096;17.190;2022-09-01T04:27:02;9.10;;;1.40;;
41705;SDS011;27385;51.096;17.190;2022-09-01T04:29:34;8.00;;;1.50;;
41705;SDS011;27385;51.096;17.190;2022-09-01T04:32:07;5.40;;;1.20;;
41705;SDS011;27385;51.096;17.190;2022-09-01T04:34:40;10.10;;;1.50;;
41705;SDS011;27385;51.096;17.190;2022-09-01T04:37:12;8.40;;;1.40;;
41705;SDS011;27385;51.096;17.190;2022-09-01T04:39:49;10.90;;;1.60;;
41705;SDS011;27385;51.096;17.190;2022-09-01T04:42:21;14.10;;;1.70;;
41705;SDS011;27385;51.096;17.190;2022-09-01T04:44:56;8.90;;;1.50;;
41705;SDS011;27385;51.096;17.190;2022-09-01T04:47:29;9.80;;;1.60;;
41705;SDS011;27385;51.096;17.190;2022-09-01T04:50:02;22.40;;;2.70;;
41705;SDS011;27385;51.096;17.190;2022-09-01T04:52:40;13.40;;;1.80;;
41705;SDS011;27385;51.096;17.190;2022-09-01T04:55:13;14.20;;;1.90;;
41705;SDS011;27385;51.096;17.190;2022-09-01T04:57:46;11.00;;;1.70;;
41705;SDS011;27385;51.096;17.190;2022-09-01T05:00:19;10.40;;;1.60;;
41705;SDS011;27385;51.096;17.190;2022-09-01T05:02:53;9.70;;;1.60;;
41705;SDS011;27385;51.096;17.190;2022-09-01T05:05:36;8.50;;;2.00;;
41705;SDS011;27385;51.096;17.190;2022-09-01T05:08:12;8.50;;;1.50;;
41705;SDS011;27385;51.096;17.190;2022-09-01T05:10:46;12.30;;;1.40;;
41705;SDS011;27385;51.096;17.190;2022-09-01T05:13:19;9.30;;;1.50;;
41705;SDS011;27385;51.096;17.190;2022-09-01T05:15:59;10.80;;;2.40;;
41705;SDS011;27385;51.096;17.190;2022-09-01T05:18:36;8.60;;;1.40;;
41705;SDS011;27385;51.096;17.190;2022-09-01T05:21:09;10.70;;;2.30;;
41705;SDS011;27385;51.096;17.190;2022-09-01T05:23:43;11.70;;;1.50;;
41705;SDS011;27385;51.096;17.190;2022-09-01T05:26:19;7.50;;;1.60;;
41705;SDS011;27385;51.096;17.190;2022-09-01T05:28:54;9.20;;;1.60;;
41705;SDS011;27385;51.096;17.190;2022-09-01T05:31:27;13.60;;;2.10;;
41705;SDS011;27385;51.096;17.190;2022-09-01T05:34:04;8.20;;;1.60;;
41705;SDS011;27385;51.096;17.190;2022-09-01T05:36:40;7.50;;;1.90;;
41705;SDS011;27385;51.096;17.190;2022-09-01T05:39:13;10.80;;;1.80;;
41705;SDS011;27385;51.096;17.190;2022-09-01T05:41:45;10.30;;;1.40;;
41705;SDS011;27385;51.096;17.190;2022-09-01T05:44:17;11.10;;;2.20;;
41705;SDS011;27385;51.096;17.190;2022-09-01T05:46:49;10.50;;;1.90;;
41705;SDS011;27385;51.096;17.190;2022-09-01T05:49:22;12.50;;;1.60;;
41705;SDS011;27385;51.096;17.190;2022-09-01T05:51:55;9.10;;;1.80;;
41705;SDS011;27385;51.096;17.190;2022-09-01T05:54:27;8.50;;;1.70;;
41705;SDS011;27385;51.096;17.190;2022-09-01T05:56:59;11.00;;;1.70;;
41705;SDS011;27385;51.096;17.190;2022-09-01T05:59:31;11.40;;;1.20;;
41705;SDS011;27385;51.096;17.190;2022-09-01T06:02:03;6.80;;;1.30;;
41705;SDS011;27385;51.096;17.190;2022-09-01T06:04:37;7.40;;;1.10;;
41705;SDS011;27385;51.096;17.190;2022-09-01T06:07:12;6.60;;;1.30;;
41705;SDS011;27385;51.096;17.190;2022-09-01T06:09:45;4.80;;;1.00;;
41705;SDS011;27385;51.096;17.190;2022-09-01T06:12:20;4.10;;;1.10;;
41705;SDS011;27385;51.096;17.190;2022-09-01T06:14:52;6.20;;;1.40;;
41705;SDS011;27385;51.096;17.190;2022-09-01T06:17:25;12.30;;;1.30;;
41705;SDS011;27385;51.096;17.190;2022-09-01T06:19:57;10.60;;;1.40;;
41705;SDS011;27385;51.096;17.190;2022-09-01T06:22:38;6.90;;;1.30;;
41705;SDS011;27385;51.096;17.190;2022-09-01T06:25:11;5.60;;;1.20;;
41705;SDS011;27385;51.096;17.190;2022-09-01T06:27:44;6.40;;;1.20;;
41705;SDS011;27385;51.096;17.190;2022-09-01T06:30:17;6.40;;;1.20;;
41705;SDS011;27385;51.096;17.190;2022-09-01T06:32:53;4.40;;;1.00;;
41705;SDS011;27385;51.096;17.190;2022-09-01T06:35:25;6.20;;;1.00;;
41705;SDS011;27385;51.096;17.190;2022-09-01T06:37:57;6.80;;;1.10;;
41705;SDS011;27385;51.096;17.190;2022-09-01T06:40:30;5.20;;;1.20;;
41705;SDS011;27385;51.096;17.190;2022-09-01T06:43:02;5.80;;;1.10;;
41705;SDS011;27385;51.096;17.190;2022-09-01T06:45:38;7.30;;;1.10;;
41705;SDS011;27385;51.096;17.190;2022-09-01T06:48:11;8.90;;;1.40;;
41705;SDS011;27385;51.096;17.190;2022-09-01T06:50:45;6.60;;;0.90;;
41705;SDS011;27385;51.096;17.190;2022-09-01T06:53:16;4.40;;;1.00;;
41705;SDS011;27385;51.096;17.190;2022-09-01T06:55:48;10.70;;;1.00;;
41705;SDS011;27385;51.096;17.190;2022-09-01T06:58:21;5.20;;;1.10;;
41705;SDS011;27385;51.096;17.190;2022-09-01T07:00:52;3.20;;;0.90;;
41705;SDS011;27385;51.096;17.190;2022-09-01T07:03:24;4.60;;;0.90;;
41705;SDS011;27385;51.096;17.190;2022-09-01T07:05:56;6.70;;;1.10;;
41705;SDS011;27385;51.096;17.190;2022-09-01T07:08:28;8.30;;;0.90;;
41705;SDS011;27385;51.096;17.190;2022-09-01T07:11:00;3.60;;;0.70;;
41705;SDS011;27385;51.096;17.190;2022-09-01T07:13:35;6.60;;;0.80;;
41705;SDS011;27385;51.096;17.190;2022-09-01T07:16:07;4.10;;;0.60;;
41705;SDS011;27385;51.096;17.190;2022-09-01T07:18:45;4.20;;;0.60;;
41705;SDS011;27385;51.096;17.190;2022-09-01T07:21:17;4.50;;;0.60;;
41705;SDS011;27385;51.096;17.190;2022-09-01T07:23:49;4.80;;;0.70;;
41705;SDS011;27385;51.096;17.190;2022-09-01T07:26:22;4.40;;;0.70;;
41705;SDS011;27385;51.096;17.190;2022-09-01T07:28:54;2.50;;;0.60;;
41705;SDS011;27385;51.096;17.190;2022-09-01T07:31:27;6.50;;;0.60;;
41705;SDS011;27385;51.096;17.190;2022-09-01T07:34:03;6.30;;;1.20;;
41705;SDS011;27385;51.096;17.190;2022-09-01T07:36:40;5.10;;;0.70;;
41705;SDS011;27385;51.096;17.190;2022-09-01T07:39:13;4.40;;;0.60;;
41705;SDS011;27385;51.096;17.190;2022-09-01T07:41:45;13.70;;;1.70;;
41705;SDS011;27385;51.096;17.190;2022-09-01T07:44:16;9.20;;;1.30;;
41705;SDS011;27385;51.096;17.190;2022-09-01T07:46:48;6.30;;;1.60;;
41705;SDS011;27385;51.096;17.190;2022-09-01T07:49:20;5.00;;;0.60;;
41705;SDS011;27385;51.096;17.190;2022-09-01T07:51:52;4.10;;;0.50;;
41705;SDS011;27385;51.096;17.190;2022-09-01T07:54:25;2.00;;;0.40;;
41705;SDS011;27385;51.096;17.190;2022-09-01T07:56:57;2.20;;;0.50;;
41705;SDS011;27385;51.096;17.190;2022-09-01T07:59:28;4.20;;;0.40;;
41705;SDS011;27385;51.096;17.190;2022-09-01T08:02:00;1.90;;;0.40;;
41705;SDS011;27385;51.096;17.190;2022-09-01T08:04:33;4.80;;;0.60;;
41705;SDS011;27385;51.096;17.190;2022-09-01T08:07:08;5.60;;;0.50;;
41705;SDS011;27385;51.096;17.190;2022-09-01T08:09:40;3.00;;;0.40;;
41705;SDS011;27385;51.096;17.190;2022-09-01T08:12:12;3.10;;;0.60;;
41705;SDS011;27385;51.096;17.190;2022-09-01T08:14:43;4.60;;;0.40;;
41705;SDS011;27385;51.096;17.190;2022-09-01T08:17:20;1.80;;;0.30;;
41705;SDS011;27385;51.096;17.190;2022-09-01T08:19:51;3.70;;;0.50;;
41705;SDS011;27385;51.096;17.190;2022-09-01T08:22:22;3.10;;;0.30;;
41705;SDS011;27385;51.096;17.190;2022-09-01T08:24:54;1.50;;;0.40;;
41705;SDS011;27385;51.096;17.190;2022-09-01T08:27:25;2.80;;;0.40;;
41705;SDS011;27385;51.096;17.190;2022-09-01T08:29:57;4.00;;;0.50;;
41705;SDS011;27385;51.096;17.190;2022-09-01T08:32:28;2.60;;;0.40;;
41705;SDS011;27385;51.096;17.190;2022-09-01T08:35:00;2.80;;;0.40;;
41705;SDS011;27385;51.096;17.190;2022-09-01T08:37:32;4.80;;;0.40;;
41705;SDS011;27385;51.096;17.190;2022-09-01T08:40:05;2.80;;;0.30;;
41705;SDS011;27385;51.096;17.190;2022-09-01T08:42:44;3.40;;;0.30;;
41705;SDS011;27385;51.096;17.190;2022-09-01T08:45:24;5.10;;;0.60;;
41705;SDS011;27385;51.096;17.190;2022-09-01T08:48:01;3.80;;;0.50;;
41705;SDS011;27385;51.096;17.190;2022-09-01T08:50:42;2.10;;;0.50;;
41705;SDS011;27385;51.096;17.190;2022-09-01T08:53:22;3.10;;;0.30;;
41705;SDS011;27385;51.096;17.190;2022-09-01T08:55:57;2.30;;;0.40;;
41705;SDS011;27385;51.096;17.190;2022-09-01T08:58:29;1.30;;;0.30;;
41705;SDS011;27385;51.096;17.190;2022-09-01T09:01:02;3.50;;;0.50;;
41705;SDS011;27385;51.096;17.190;2022-09-01T09:03:39;5.80;;;1.60;;
41705;SDS011;27385;51.096;17.190;2022-09-01T09:08:56;1.60;;;0.40;;
41705;SDS011;27385;51.096;17.190;2022-09-01T09:14:57;2.80;;;0.40;;
41705;SDS011;27385;51.096;17.190;2022-09-01T09:17:45;3.00;;;0.50;;
41705;SDS011;27385;51.096;17.190;2022-09-01T09:20:21;5.10;;;0.40;;
41705;SDS011;27385;51.096;17.190;2022-09-01T09:22:53;6.00;;;0.60;;
41705;SDS011;27385;51.096;17.190;2022-09-01T09:25:25;3.10;;;0.50;;
41705;SDS011;27385;51.096;17.190;2022-09-01T09:27:58;5.30;;;0.60;;
41705;SDS011;27385;51.096;17.190;2022-09-01T09:30:30;5.10;;;0.60;;
41705;SDS011;27385;51.096;17.190;2022-09-01T09:33:03;4.20;;;0.60;;
41705;SDS011;27385;51.096;17.190;2022-09-01T09:35:38;2.10;;;0.40;;
41705;SDS011;27385;51.096;17.190;2022-09-01T09:38:19;3.80;;;0.40;;
41705;SDS011;27385;51.096;17.190;2022-09-01T09:40:57;1.50;;;0.30;;
41705;SDS011;27385;51.096;17.190;2022-09-01T09:43:31;2.50;;;0.40;;
41705;SDS011;27385;51.096;17.190;2022-09-01T09:46:25;15.10;;;1.70;;
41705;SDS011;27385;51.096;17.190;2022-09-01T09:49:11;11.00;;;2.20;;
41705;SDS011;27385;51.096;17.190;2022-09-01T09:51:52;4.80;;;0.60;;
41705;SDS011;27385;51.096;17.190;2022-09-01T09:54:26;9.60;;;1.40;;
41705;SDS011;27385;51.096;17.190;2022-09-01T09:57:03;7.10;;;1.00;;
41705;SDS011;27385;51.096;17.190;2022-09-01T09:59:40;2.20;;;0.40;;
41705;SDS011;27385;51.096;17.190;2022-09-01T10:02:18;3.80;;;0.40;;
41705;SDS011;27385;51.096;17.190;2022-09-01T10:04:55;1.30;;;0.20;;
41705;SDS011;27385;51.096;17.190;2022-09-01T10:07:30;3.20;;;0.40;;
41705;SDS011;27385;51.096;17.190;2022-09-01T10:10:04;2.30;;;0.20;;
41705;SDS011;27385;51.096;17.190;2022-09-01T10:12:55;0.90;;;0.20;;
41705;SDS011;27385;51.096;17.190;2022-09-01T10:15:29;1.40;;;0.10;;
41705;SDS011;27385;51.096;17.190;2022-09-01T10:18:06;3.50;;;0.30;;
41705;SDS011;27385;51.096;17.190;2022-09-01T10:20:43;3.40;;;0.10;;
41705;SDS011;27385;51.096;17.190;2022-09-01T10:23:20;1.90;;;0.10;;
41705;SDS011;27385;51.096;17.190;2022-09-01T10:25:55;1.50;;;0.20;;
41705;SDS011;27385;51.096;17.190;2022-09-01T10:28:33;1.40;;;0.20;;
41705;SDS011;27385;51.096;17.190;2022-09-01T10:31:15;2.30;;;0.30;;
41705;SDS011;27385;51.096;17.190;2022-09-01T10:33:48;0.90;;;0.20;;
41705;SDS011;27385;51.096;17.190;2022-09-01T10:36:21;3.20;;;0.20;;
41705;SDS011;27385;51.096;17.190;2022-09-01T10:38:52;0.60;;;0.10;;
41705;SDS011;27385;51.096;17.190;2022-09-01T10:44:19;0.80;;;0.10;;
41705;SDS011;27385;51.096;17.190;2022-09-01T10:46:53;2.30;;;0.20;;
41705;SDS011;27385;51.096;17.190;2022-09-01T10:55:47;2.00;;;0.10;;
41705;SDS011;27385;51.096;17.190;2022-09-01T11:07:41;1.50;;;0.10;;
41705;SDS011;27385;51.096;17.190;2022-09-01T11:13:14;0.80;;;0.10;;
41705;SDS011;27385;51.096;17.190;2022-09-01T11:22:08;2.50;;;0.20;;
41705;SDS011;27385;51.096;17.190;2022-09-01T11:24:48;0.90;;;0.20;;
41705;SDS011;27385;51.096;17.190;2022-09-01T11:30:50;2.40;;;0.20;;
41705;SDS011;27385;51.096;17.190;2022-09-01T11:33:34;1.70;;;0.10;;
41705;SDS011;27385;51.096;17.190;2022-09-01T11:36:14;0.30;;;0.10;;
41705;SDS011;27385;51.096;17.190;2022-09-01T11:38:53;0.70;;;0.10;;
41705;SDS011;27385;51.096;17.190;2022-09-01T11:44:09;0.80;;;0.10;;
41705;SDS011;27385;51.096;17.190;2022-09-01T11:46:47;3.10;;;0.30;;
41705;SDS011;27385;51.096;17.190;2022-09-01T11:49:29;0.90;;;0.20;;
41705;SDS011;27385;51.096;17.190;2022-09-01T11:52:03;1.30;;;0.10;;
41705;SDS011;27385;51.096;17.190;2022-09-01T11:54:38;2.30;;;0.10;;
41705;SDS011;27385;51.096;17.190;2022-09-01T11:57:17;1.60;;;0.10;;
41705;SDS011;27385;51.096;17.190;2022-09-01T11:59:50;1.30;;;0.10;;
41705;SDS011;27385;51.096;17.190;2022-09-01T12:02:24;1.40;;;0.10;;
41705;SDS011;27385;51.096;17.190;2022-09-01T12:04:58;2.10;;;0.20;;
41705;SDS011;27385;51.096;17.190;2022-09-01T12:07:38;1.70;;;0.10;;
41705;SDS011;27385;51.096;17.190;2022-09-01T12:10:18;1.60;;;0.10;;
41705;SDS011;27385;51.096;17.190;2022-09-01T12:13:02;1.10;;;0.10;;
41705;SDS011;27385;51.096;17.190;2022-09-01T12:15:35;2.80;;;0.10;;
41705;SDS011;27385;51.096;17.190;2022-09-01T12:18:11;1.20;;;0.10;;
41705;SDS011;27385;51.096;17.190;2022-09-01T12:20:48;1.50;;;0.10;;
41705;SDS011;27385;51.096;17.190;2022-09-01T12:23:24;1.60;;;0.10;;
41705;SDS011;27385;51.096;17.190;2022-09-01T12:25:57;1.00;;;0.10;;
41705;SDS011;27385;51.096;17.190;2022-09-01T12:28:30;3.80;;;0.10;;
41705;SDS011;27385;51.096;17.190;2022-09-01T12:31:04;2.40;;;0.20;;
41705;SDS011;27385;51.096;17.190;2022-09-01T12:33:42;1.40;;;0.30;;
41705;SDS011;27385;51.096;17.190;2022-09-01T12:36:17;4.00;;;0.20;;
41705;SDS011;27385;51.096;17.190;2022-09-01T12:38:52;1.00;;;0.10;;
41705;SDS011;27385;51.096;17.190;2022-09-01T12:41:31;1.10;;;0.10;;
41705;SDS011;27385;51.096;17.190;2022-09-01T12:46:58;1.60;;;0.20;;
41705;SDS011;27385;51.096;17.190;2022-09-01T12:49:37;0.90;;;0.10;;
41705;SDS011;27385;51.096;17.190;2022-09-01T12:52:12;0.90;;;0.10;;
41705;SDS011;27385;51.096;17.190;2022-09-01T12:54:53;1.40;;;0.10;;
41705;SDS011;27385;51.096;17.190;2022-09-01T12:57:47;3.50;;;0.20;;
41705;SDS011;27385;51.096;17.190;2022-09-01T13:00:21;1.40;;;0.20;;
41705;SDS011;27385;51.096;17.190;2022-09-01T13:03:06;1.10;;;0.20;;
41705;SDS011;27385;51.096;17.190;2022-09-01T13:05:41;1.20;;;0.10;;
41705;SDS011;27385;51.096;17.190;2022-09-01T13:08:17;2.80;;;0.20;;
41705;SDS011;27385;51.096;17.190;2022-09-01T13:10:53;3.20;;;0.10;;
41705;SDS011;27385;51.096;17.190;2022-09-01T13:13:26;3.90;;;0.20;;
41705;SDS011;27385;51.096;17.190;2022-09-01T13:15:58;2.00;;;0.10;;
41705;SDS011;27385;51.096;17.190;2022-09-01T13:18:35;1.80;;;0.10;;
41705;SDS011;27385;51.096;17.190;2022-09-01T13:21:07;3.20;;;0.10;;
41705;SDS011;27385;51.096;17.190;2022-09-01T13:23:40;0.80;;;0.20;;
41705;SDS011;27385;51.096;17.190;2022-09-01T13:26:15;5.20;;;0.20;;
41705;SDS011;27385;51.096;17.190;2022-09-01T13:28:53;1.70;;;0.10;;
41705;SDS011;27385;51.096;17.190;2022-09-01T13:31:26;4.00;;;0.20;;
41705;SDS011;27385;51.096;17.190;2022-09-01T13:33:58;2.00;;;0.20;;
41705;SDS011;27385;51.096;17.190;2022-09-01T13:36:30;0.90;;;0.20;;
41705;SDS011;27385;51.096;17.190;2022-09-01T13:39:01;2.40;;;0.20;;
41705;SDS011;27385;51.096;17.190;2022-09-01T13:41:33;2.00;;;0.10;;
41705;SDS011;27385;51.096;17.190;2022-09-01T13:44:05;5.50;;;0.20;;
41705;SDS011;27385;51.096;17.190;2022-09-01T13:46:38;1.50;;;0.20;;
41705;SDS011;27385;51.096;17.190;2022-09-01T13:49:09;1.40;;;0.20;;
41705;SDS011;27385;51.096;17.190;2022-09-01T13:51:41;2.80;;;0.10;;
41705;SDS011;27385;51.096;17.190;2022-09-01T13:54:18;1.50;;;0.30;;
41705;SDS011;27385;51.096;17.190;2022-09-01T13:56:50;1.30;;;0.10;;
41705;SDS011;27385;51.096;17.190;2022-09-01T13:59:21;2.50;;;0.20;;
41705;SDS011;27385;51.096;17.190;2022-09-01T14:01:53;1.80;;;0.10;;
41705;SDS011;27385;51.096;17.190;2022-09-01T14:04:24;3.40;;;0.20;;
41705;SDS011;27385;51.096;17.190;2022-09-01T14:06:56;1.70;;;0.20;;
41705;SDS011;27385;51.096;17.190;2022-09-01T14:09:27;1.10;;;0.10;;
41705;SDS011;27385;51.096;17.190;2022-09-01T14:11:59;3.70;;;0.20;;
41705;SDS011;27385;51.096;17.190;2022-09-01T14:14:34;1.00;;;0.10;;
41705;SDS011;27385;51.096;17.190;2022-09-01T14:17:06;1.60;;;0.10;;
41705;SDS011;27385;51.096;17.190;2022-09-01T14:19:37;2.00;;;0.10;;
41705;SDS011;27385;51.096;17.190;2022-09-01T14:22:09;0.60;;;0.10;;
41705;SDS011;27385;51.096;17.190;2022-09-01T14:24:40;0.60;;;0.00;;
41705;SDS011;27385;51.096;17.190;2022-09-01T14:27:11;1.50;;;0.10;;
41705;SDS011;27385;51.096;17.190;2022-09-01T14:29:46;4.10;;;0.30;;
41705;SDS011;27385;51.096;17.190;2022-09-01T14:32:19;1.70;;;0.10;;
41705;SDS011;27385;51.096;17.190;2022-09-01T14:34:54;1.30;;;0.10;;
41705;SDS011;27385;51.096;17.190;2022-09-01T14:37:26;1.70;;;0.20;;
41705;SDS011;27385;51.096;17.190;2022-09-01T14:39:58;1.70;;;0.10;;
41705;SDS011;27385;51.096;17.190;2022-09-01T14:42:29;2.00;;;0.10;;
41705;SDS011;27385;51.096;17.190;2022-09-01T14:45:01;0.50;;;0.10;;
41705;SDS011;27385;51.096;17.190;2022-09-01T14:47:32;0.80;;;0.10;;
41705;SDS011;27385;51.096;17.190;2022-09-01T14:50:04;0.90;;;0.10;;
41705;SDS011;27385;51.096;17.190;2022-09-01T14:52:36;1.70;;;0.10;;
41705;SDS011;27385;51.096;17.190;2022-09-01T14:55:08;5.40;;;0.40;;
41705;SDS011;27385;51.096;17.190;2022-09-01T14:57:39;2.20;;;0.10;;
41705;SDS011;27385;51.096;17.190;2022-09-01T15:00:12;2.70;;;0.10;;
41705;SDS011;27385;51.096;17.190;2022-09-01T15:02:44;0.50;;;0.10;;
41705;SDS011;27385;51.096;17.190;2022-09-01T15:05:16;2.80;;;0.10;;
41705;SDS011;27385;51.096;17.190;2022-09-01T15:07:48;3.50;;;0.20;;
41705;SDS011;27385;51.096;17.190;2022-09-01T15:10:20;1.40;;;0.10;;
41705;SDS011;27385;51.096;17.190;2022-09-01T15:12:55;0.90;;;0.00;;
41705;SDS011;27385;51.096;17.190;2022-09-01T15:15:28;0.60;;;0.10;;
41705;SDS011;27385;51.096;17.190;2022-09-01T15:18:00;0.40;;;0.00;;
41705;SDS011;27385;51.096;17.190;2022-09-01T15:20:32;3.90;;;0.20;;
41705;SDS011;27385;51.096;17.190;2022-09-01T15:23:18;1.40;;;0.00;;
41705;SDS011;27385;51.096;17.190;2022-09-01T15:25:52;2.80;;;0.20;;
41705;SDS011;27385;51.096;17.190;2022-09-01T15:28:24;1.70;;;0.10;;
41705;SDS011;27385;51.096;17.190;2022-09-01T15:30:57;5.40;;;0.20;;
41705;SDS011;27385;51.096;17.190;2022-09-01T15:33:30;1.00;;;0.10;;
41705;SDS011;27385;51.096;17.190;2022-09-01T15:36:02;1.50;;;0.10;;
41705;SDS011;27385;51.096;17.190;2022-09-01T15:38:35;5.40;;;0.30;;
41705;SDS011;27385;51.096;17.190;2022-09-01T15:41:06;0.60;;;0.10;;
41705;SDS011;27385;51.096;17.190;2022-09-01T15:43:38;1.90;;;0.20;;
41705;SDS011;27385;51.096;17.190;2022-09-01T15:46:10;2.50;;;0.10;;
41705;SDS011;27385;51.096;17.190;2022-09-01T15:48:43;1.20;;;0.10;;
41705;SDS011;27385;51.096;17.190;2022-09-01T15:51:29;1.10;;;0.10;;
41705;SDS011;27385;51.096;17.190;2022-09-01T15:54:04;2.60;;;0.20;;
41705;SDS011;27385;51.096;17.190;2022-09-01T15:56:37;1.00;;;0.10;;